• Join FlightAware (Why Join?)
  • Login
  • US Flag 
 
02:32PM EST


 

Airport Tracker/Info


-or-


 

Live Flight TrackerFlight Track Log ✈ JIA4751 ✈ 30-Nov-2013 ✈ KDCA - KPNS

Flight Track Log - Related Links

Times and Time Zones

All times are in EST time to prevent confusion due to time zone crossing. See the JIA4751 flight status page for this flight to view local times or setup timezone preferences in your user account.

Time Position Orientation Groundspeed Altitude Reporting Facility
EST Latitude Longitude Course Direction KTS MPH feet Rate Location/Type
03:36PM 38.8000 -77.0333 228° Southwest 176 203 2,800  Level Potomac TRACON
03:37PM 38.7500 -77.0333 180° South 216 249 4,600 1,080 Climbing Potomac TRACON
03:38PM 38.6475 -77.3268 225° Southwest  Level Estimated
03:38PM 38.7167 -77.1000 237° Southwest 250 288 5,000  Level Potomac TRACON
03:39PM 38.5644 -77.4013 215° Southwest  Level FlightAware Approximate
03:39PM 38.6833 -77.1833 243° Southwest 252 290 7,600  Level Potomac TRACON
03:40PM 38.4962 -77.4973 237° Southwest  Level Estimated
03:41PM 38.4279 -77.5931 228° Southwest  Level Estimated
03:41PM 38.5778 -77.3286 227° Southwest 263 303 12,900  Level Washington Center
03:42PM 38.5225 -77.4014 226° Southwest 275 316 14,900 1,860 Climbing Washington Center
03:43PM 38.4628 -77.4769 225° Southwest 295 339 16,800 1,560 Climbing Washington Center
03:44PM 38.4181 -77.5447 230° Southwest 307 353 18,100 1,200 Climbing Washington Center
03:45PM 38.3539 -77.6383 229° Southwest 314 361 19,200 1,440 Climbing Washington Center
03:46PM 38.2983 -77.7242 231° Southwest 314 361 21,100 1,500 Climbing Washington Center
03:47PM 38.2339 -77.8175 229° Southwest 319 367 22,200 1,500 Climbing Washington Center
03:48PM 38.1722 -77.8817 219° Southwest 319 367 24,100 1,320 Climbing Washington Center
03:49PM 38.0919 -77.9425 211° Southwest 325 374 24,900 660 Climbing Washington Center
03:50PM 37.9989 -78.0081 209° Southwest 346 398 25,500 720 Climbing Washington Center
03:51PM 37.9181 -78.0844 217° Southwest 357 411 26,400 900 Climbing Washington Center
03:52PM 37.8431 -78.1689 222° Southwest 362 417 27,300 720 Climbing Washington Center
03:53PM 37.7811 -78.2456 224° Southwest 357 411 27,900 540 Climbing Washington Center
03:54PM 37.7039 -78.3322 222° Southwest 357 411 28,500 540 Climbing Washington Center
03:55PM 37.6269 -78.4158 221° Southwest 362 417 29,000 540 Climbing Washington Center
03:56PM 37.5414 -78.5069 220° Southwest 367 422 29,600 540 Climbing Washington Center
03:57PM 37.4642 -78.5931 222° Southwest 372 428 30,100 480 Climbing Washington Center
03:58PM 37.3847 -78.6786 221° Southwest 372 428 30,600 480 Climbing Washington Center
03:59PM 37.3056 -78.7592 219° Southwest 372 428 31,100 480 Climbing Washington Center
04:00PM 37.2403 -78.8581 230° Southwest 367 422 31,600 480 Climbing Washington Center
04:01PM 37.1836 -78.9417 230° Southwest 367 422 32,100 480 Climbing Washington Center
04:02PM 37.1164 -79.0353 228° Southwest 367 422 32,600 480 Climbing Washington Center
04:03PM 37.0511 -79.1286 229° Southwest 367 422 33,100 480 Climbing Washington Center
04:04PM 36.9878 -79.2219 230° Southwest 367 422 33,600 420 Climbing Washington Center
04:05PM 36.9244 -79.3125 229° Southwest 362 417 34,000 120 Climbing Washington Center
04:07PM 36.8136 -79.4675 228° Southwest 353 406 34,000  Level Atlanta Center
04:08PM 36.7464 -79.5647 229° Southwest 359 413 34,000  Level Atlanta Center
04:09PM 36.6789 -79.6617 229° Southwest 366 421 34,000  Level Atlanta Center
04:10PM 36.6092 -79.7586 228° Southwest 371 427 34,000  Level Atlanta Center
04:11PM 36.5417 -79.8553 229° Southwest 371 427 34,000  Level Atlanta Center
04:12PM 36.4781 -79.9464 229° Southwest 371 427 34,000  Level Atlanta Center
04:13PM 36.4083 -80.0428 228° Southwest 371 427 34,000  Level Atlanta Center
04:14PM 36.3406 -80.1417 230° Southwest 376 433 34,000  Level Atlanta Center
04:15PM 36.2686 -80.2403 228° Southwest 376 433 34,000  Level Atlanta Center
04:16PM 36.1964 -80.3364 227° Southwest 376 433 34,000  Level Atlanta Center
04:17PM 36.1203 -80.4428 228° Southwest 376 433 34,000  Level Atlanta Center
04:18PM 36.0503 -80.5433 229° Southwest 381 438 34,000  Level Atlanta Center
04:19PM 35.9881 -80.6333 230° Southwest 381 438 34,000  Level Atlanta Center
04:20PM 35.9156 -80.7311 228° Southwest 387 445 34,000  Level Atlanta Center
04:21PM 35.8453 -80.8314 229° Southwest 387 445 34,000  Level Atlanta Center
04:22PM 35.7708 -80.9317 228° Southwest 393 452 34,000  Level Atlanta Center
04:23PM 35.6981 -81.0289 227° Southwest 393 452 34,000  Level Atlanta Center
04:24PM 35.6172 -81.1367 227° Southwest 393 452 34,000  Level Atlanta Center
04:25PM 35.5483 -81.2286 227° Southwest 399 459 34,000  Level Atlanta Center
04:26PM 35.4675 -81.3433 229° Southwest 406 467 34,000  Level Atlanta Center
04:27PM 35.3925 -81.4403 227° Southwest 406 467 34,000  Level Atlanta Center
04:28PM 35.3150 -81.5342 225° Southwest 393 452 34,000  Level Atlanta Center
04:30PM 35.1622 -81.7217 225° Southwest 388 447 34,000  Level Atlanta Center
04:31PM 35.0867 -81.8153 225° Southwest 388 447 34,000  Level Atlanta Center
04:32PM 35.0092 -81.9111 225° Southwest 388 447 34,000  Level Atlanta Center
04:33PM 34.9336 -82.0042 225° Southwest 393 452 34,000  Level Atlanta Center
04:34PM 34.8661 -82.0844 224° Southwest 387 445 34,000  Level Atlanta Center
04:35PM 34.7881 -82.1772 224° Southwest 392 451 34,000  Level Atlanta Center
04:36PM 34.7144 -82.2700 226° Southwest 392 451 34,000  Level Atlanta Center
04:37PM 34.6364 -82.3625 224° Southwest 392 451 34,000  Level Atlanta Center
04:38PM 34.5583 -82.4547 224° Southwest 397 457 34,000  Level Atlanta Center
04:39PM 34.4822 -82.5494 226° Southwest 397 457 34,000  Level Atlanta Center
04:40PM 34.3958 -82.6492 224° Southwest 397 457 34,000  Level Atlanta Center
04:41PM 34.3156 -82.7436 224° Southwest 397 457 34,000  Level Atlanta Center
04:42PM 34.2494 -82.8275 226° Southwest 392 451 34,000  Level Atlanta Center
04:43PM 34.1711 -82.9164 223° Southwest 392 451 34,000  Level Atlanta Center
04:44PM 34.0906 -83.0128 225° Southwest 397 457 34,000  Level Atlanta Center
04:45PM 34.0119 -83.1017 223° Southwest 397 457 34,000  Level Atlanta Center
04:46PM 33.9353 -83.1950 225° Southwest 397 457 34,000  Level Atlanta Center
04:47PM 33.8567 -83.2908 225° Southwest 397 457 34,000  Level Atlanta Center
04:48PM 33.7697 -83.3942 225° Southwest 397 457 34,000  Level Atlanta Center
04:49PM 33.6886 -83.4844 223° Southwest 402 463 34,000  Level Atlanta Center
04:50PM 33.6097 -83.5775 225° Southwest 396 456 34,000  Level Atlanta Center
04:51PM 33.5306 -83.6700 224° Southwest 396 456 34,000  Level Atlanta Center
04:52PM 33.4494 -83.7625 224° Southwest 402 463 34,000  Level Atlanta Center
04:53PM 33.3703 -83.8547 224° Southwest 396 456 34,000  Level Atlanta Center
04:54PM 33.2911 -83.9469 224° Southwest 396 456 34,000  Level Atlanta Center
04:55PM 33.2203 -84.0314 225° Southwest 391 450 34,000  Level Atlanta Center
04:56PM 33.1408 -84.1206 223° Southwest 391 450 34,000  Level Atlanta Center
04:57PM 33.0636 -84.2122 225° Southwest 396 456 34,000  Level Atlanta Center
04:58PM 32.9842 -84.3064 225° Southwest 396 456 34,000  Level Atlanta Center
04:59PM 32.9044 -84.3925 222° Southwest 396 456 34,000  Level Atlanta Center
05:00PM 32.8186 -84.4911 224° Southwest 396 456 34,000  Level Atlanta Center
05:01PM 32.7494 -84.5697 224° Southwest 391 450 34,000  Level Atlanta Center
05:02PM 32.6697 -84.6606 224° Southwest 391 450 34,000  Level Atlanta Center
05:03PM 32.5878 -84.7514 223° Southwest 396 456 34,000  Level Atlanta Center
05:04PM 32.5058 -84.8369 221° Southwest 396 456 34,000  Level Atlanta Center
05:05PM 32.4239 -84.9297 224° Southwest 396 456 34,000 -600 Level Atlanta Center
05:06PM 32.3397 -85.0222 223° Southwest 401 461 32,800 -1,380 Descending Atlanta Center
05:07PM 32.2489 -85.1267 224° Southwest 426 490 31,300 -1,500 Descending Atlanta Center
05:08PM 32.1583 -85.2239 222° Southwest 442 509 29,800 -1,500 Descending Atlanta Center
05:09PM 32.0719 -85.3231 224° Southwest 442 509 28,300 -1,500 Descending Atlanta Center
05:11PM 31.9122 -85.4992 223° Southwest 416 479 25,600 -1,500 Descending Jacksonville Center
05:12PM 31.8244 -85.5944 223° Southwest 416 479 24,100 -840 Descending Jacksonville Center
05:13PM 31.7389 -85.6897 223° Southwest 416 479 24,000 -60 Descending Jacksonville Center
05:14PM 31.6556 -85.7822 223° Southwest 416 479 24,000  Level Jacksonville Center
05:15PM 31.5697 -85.8747 223° Southwest 416 479 24,000  Level Jacksonville Center
05:16PM 31.5086 -85.9872 238° Southwest 416 479 24,000 -480 Level Jacksonville Center
05:17PM 31.4475 -86.0997 238° Southwest 416 479 23,100 -1,260 Descending Jacksonville Center
05:18PM 31.3861 -86.2069 236° Southwest 409 471 21,500 -1,560 Descending Jacksonville Center
05:19PM 31.3292 -86.3097 237° Southwest 396 456 20,000 -1,500 Descending Jacksonville Center
05:20PM 31.2764 -86.4122 239° Southwest 382 440 18,500 -1,320 Descending Jacksonville Center
05:21PM 31.2236 -86.5072 237° Southwest 371 427 17,400 -1,380 Descending Jacksonville Center
05:21PM 31.1928 -86.5597 236° Southwest 351 404 16,500 -1,500 Descending Jacksonville Center
05:22PM 31.1708 -86.6025 239° Southwest 360 414 15,900 -1,500 Descending Jacksonville Center
05:22PM 31.1397 -86.6594 237° Southwest 346 398 15,000 -1,500 Descending Jacksonville Center
05:23PM 31.1133 -86.7044 236° Southwest 360 414 14,400 -1,500 Descending Jacksonville Center
05:23PM 31.0892 -86.7494 238° Southwest 342 394 13,500 -1,500 Descending Jacksonville Center
05:24PM 31.0606 -86.7944 233° Southwest 348 400 12,900 -1,620 Descending Jacksonville Center
05:24PM 31.0339 -86.8467 239° Southwest 338 389 11,900 -1,440 Descending Jacksonville Center
05:25PM 31.0125 -86.8675 220° Southwest 340 391 11,500 -1,440 Descending Jacksonville Center
05:25PM 30.9653 -86.9019 212° Southwest 298 343 10,500 -1,500 Descending Jacksonville Center
05:26PM 30.9439 -86.9206 217° Southwest 312 359 10,000 -1,920 Descending Jacksonville Center
05:26PM 30.8967 -86.9594 215° Southwest 280 322 8,600 -1,920 Descending Jacksonville Center
05:27PM 30.8756 -86.9708 205° Southwest 297 342 8,100 -1,800 Descending Jacksonville Center
05:27PM 30.8347 -87.0053 216° Southwest 275 316 6,800 -1,920 Descending Jacksonville Center
05:28PM 30.8133 -87.0214 213° Southwest 291 335 6,200 -1,920 Descending Jacksonville Center
05:28PM 30.7642 -87.0578 212° Southwest 263 303 4,700 -1,740 Descending Jacksonville Center
05:29PM 30.7514 -87.0669 212° Southwest 285 328 4,500 -1,620 Descending Jacksonville Center
05:29PM 30.7042 -87.1058 215° Southwest 253 291 3,100 -1,620 Descending Jacksonville Center
05:30PM 30.6914 -87.1125 204° Southwest 274 315 2,900 -1,440 Descending Jacksonville Center
05:30PM 30.6442 -87.1492 214° Southwest 257 296 1,700 -720 Descending Jacksonville Center
05:31PM 30.5928 -87.1903 215° Southwest 190 219 1,700 -120 Level Jacksonville Center
05:32PM 30.5483 -87.2100 201° Southwest 163 188 1,500 -540 Descending Jacksonville Center
05:33PM 30.5069 -87.2008 169° South 144 166 700 -840 Descending Jacksonville Center